KBTM/BTM METAR and TAF weather

Enter ICAO airport designator
Station Type Date Time Source
KBTM METAR 2021/09/25 10:53 UTC NOAA

KBTM 251053Z AUTO 13004KT 10SM CLR 02/01 A3014 RMK AO2 SLP176 T00170006


Station Type Date Time Source
KBTM Decoded METAR 2021/09/25 10:53 UTC NOAA

BERT MOONEY AIRPORT, MT, United States (KBTM) 45-58N 112-30W 1688M
Sep 25, 2021 - 06:53 AM EDT / 2021.09.25 1053 UTC
Wind: from the SE (130 degrees) at 5 MPH (4 KT):0
Visibility: 10 mile(s):0
Sky conditions: clear
Temperature: 35.1 F (1.7 C)
Dew Point: 33.1 F (0.6 C)
Relative Humidity: 92%
Pressure (altimeter): 30.14 in. Hg (1020 hPa)
ob: KBTM 251053Z AUTO 13004KT 10SM CLR 02/01 A3014 RMK AO2 SLP176 T00170006
cycle: 11

Station Type Date Time Source
KBTM TAF 2021/09/25 12:22 UTC NOAA

TAF KBTM 251120Z 2512/2612 14003KT P6SM SKC
FM252000 30012G20KT P6SM SKC
FM260200 29006KT P6SM SKC

Example: see airport list